Time;durP1;ratioP1;P1;durP2;ratioP2;P2;SDS_P1;SDS_P2;PMS_P1;PMS_P2;Temp;Humidity;BMP_temperature;BMP_pressure;BME280_temperature;BME280_humidity;BME280_pressure;Samples;Min_cycle;Max_cycle;Signal;HPM_P1;HPM_P2
2021/04/13 00:01:10;;;;;;;2.00;1.25;;;;;;;1.71;73.82;102691.66;5075785;28;20392;-90
2021/04/13 00:04:02;;;;;;;3.75;1.67;;;;;;;1.68;74.42;102698.06;5072412;28;20401;-87
2021/04/13 00:06:51;;;;;;;4.82;1.77;;;;;;;1.68;74.11;102687.50;5066931;28;20473;-90
2021/04/13 00:09:55;;;;;;;3.17;1.83;;;;;;;1.74;73.31;102692.19;5054528;28;20045;-91
2021/04/13 00:12:37;;;;;;;;;;;;;;;1.66;74.61;102688.63;5043561;28;20032;-90
2021/04/13 00:15:16;;;;;;;3.75;1.67;;;;;;;1.68;73.88;102695.41;5058766;28;19995;-91
2021/04/13 00:17:44;;;;;;;3.08;1.83;;;;;;;1.54;74.97;102695.84;5057520;28;20036;-90
2021/04/13 00:20:44;;;;;;;3.22;1.90;;;;;;;1.52;74.58;102700.44;5059510;28;20028;-90
2021/04/13 00:23:35;;;;;;;;;;;;;;;;;;;;;
2021/04/13 00:26:38;;;;;;;4.53;1.83;;;;;;;1.61;73.37;102693.47;5065835;28;20051;-90
2021/04/13 00:29:14;;;;;;;3.63;1.73;;;;;;;1.69;73.09;102694.44;5057472;28;20120;-91
2021/04/13 00:31:44;;;;;;;3.13;1.65;;;;;;;1.77;72.59;102686.63;5064766;28;20690;-88
2021/04/13 00:34:27;;;;;;;4.57;2.08;;;;;;;1.81;72.47;102687.19;5055364;28;20039;-88
2021/04/13 00:37:08;;;;;;;2.33;1.75;;;;;;;1.88;72.25;102688.28;5060611;28;20085;-89
2021/04/13 00:39:34;;;;;;;3.13;1.98;;;;;;;1.86;72.81;102695.53;5055340;28;20020;-89
2021/04/13 00:42:03;;;;;;;2.80;1.65;;;;;;;1.83;72.50;102690.53;5072175;28;20028;-88
2021/04/13 00:44:33;;;;;;;1.75;1.52;;;;;;;1.80;73.01;102696.09;5056146;28;20027;-88
2021/04/13 00:47:08;;;;;;;4.90;1.95;;;;;;;1.77;72.84;102699.84;5053706;28;20115;-91
2021/04/13 00:49:37;;;;;;;4.30;1.73;;;;;;;1.74;72.95;102691.38;5053875;28;20074;-90
2021/04/13 00:52:12;;;;;;;3.92;1.83;;;;;;;1.64;73.27;102690.56;5057914;28;20036;-90
2021/04/13 00:54:43;;;;;;;2.45;2.20;;;;;;;1.62;73.09;102690.72;5079071;28;20033;-91
2021/04/13 00:57:16;;;;;;;5.32;1.80;;;;;;;1.48;73.89;102686.69;5054531;28;20032;-91
2021/04/13 00:59:44;;;;;;;3.47;1.85;;;;;;;1.46;74.11;102693.09;5055018;28;20035;-89
2021/04/13 01:02:25;;;;;;;2.53;2.10;;;;;;;1.37;75.15;102697.41;5048241;28;20031;-89
2021/04/13 01:05:29;;;;;;;;;;;;;;;;;;;;;
2021/04/13 01:08:21;;;;;;;2.67;2.03;;;;;;;1.22;75.17;102690.88;5044192;28;20120;-89
2021/04/13 01:10:48;;;;;;;4.60;2.38;;;;;;;1.12;75.74;102700.59;5073121;28;20508;-91
2021/04/13 01:13:51;;;;;;;3.35;2.13;;;;;;;1.09;76.08;102699.06;5070590;28;20028;-91
2021/04/13 01:16:37;;;;;;;3.13;1.77;;;;;;;1.06;76.25;102695.84;5077062;28;20028;-90
2021/04/13 01:19:47;;;;;;;3.78;2.25;;;;;;;0.97;76.86;102699.34;5073458;28;20032;-90
2021/04/13 01:22:36;;;;;;;2.35;2.03;;;;;;;0.90;76.73;102701.69;5069919;28;20028;-89
2021/04/13 01:25:08;;;;;;;3.85;1.92;;;;;;;0.76;77.93;102708.19;5076603;28;20020;-89
2021/04/13 01:27:38;;;;;;;4.63;2.28;;;;;;;0.76;78.02;102710.00;5072300;28;20020;-89
2021/04/13 01:30:12;;;;;;;2.70;2.05;;;;;;;0.78;77.78;102700.97;5073847;28;20024;-89
2021/04/13 01:32:37;;;;;;;5.23;2.30;;;;;;;0.75;77.78;102709.16;5089478;28;20027;-88
2021/04/13 01:35:12;;;;;;;3.65;1.73;;;;;;;0.85;76.85;102704.72;5072196;28;20020;-92
2021/04/13 01:38:17;;;;;;;2.55;2.05;;;;;;;0.75;77.45;102703.91;5073867;28;20035;-89
2021/04/13 01:43:22;;;;;;;4.25;2.17;;;;;;;0.69;76.96;102708.84;5093289;28;20102;-89
2021/04/13 01:45:57;;;;;;;3.65;2.63;;;;;;;0.60;77.25;102703.44;5062768;28;20062;-89
2021/04/13 01:48:24;;;;;;;5.78;2.40;;;;;;;0.53;78.00;102704.09;5076327;28;20020;-88
2021/04/13 01:50:57;;;;;;;6.30;2.60;;;;;;;0.49;78.07;102710.59;5069443;28;20434;-85
2021/04/13 01:53:26;;;;;;;3.95;2.40;;;;;;;0.43;78.19;102711.16;5068706;28;20628;-84
2021/04/13 01:56:25;;;;;;;5.95;2.17;;;;;;;0.44;77.51;102711.00;5070099;28;20036;-91
2021/04/13 01:59:24;;;;;;;3.05;2.20;;;;;;;0.33;78.11;102713.75;5010378;28;20125;-91
2021/04/13 02:01:57;;;;;;;4.95;2.38;;;;;;;0.39;77.92;102707.13;5005690;28;20065;-85
2021/04/13 02:04:29;;;;;;;3.53;2.60;;;;;;;0.30;78.48;102711.38;5080673;28;20039;-85
2021/04/13 02:07:32;;;;;;;3.55;2.17;;;;;;;0.27;78.22;102714.28;5069494;28;20024;-85
2021/04/13 02:10:07;;;;;;;5.60;2.60;;;;;;;0.21;78.98;102720.94;5069892;28;20024;-85
2021/04/13 02:12:38;;;;;;;3.38;2.28;;;;;;;0.20;79.38;102721.91;5071121;28;20153;-86
2021/04/13 02:15:16;;;;;;;2.85;2.40;;;;;;;0.15;79.25;102724.06;5070760;28;20119;-85
2021/04/13 02:18:12;;;;;;;4.22;2.55;;;;;;;0.02;79.89;102720.81;5064055;28;20032;-85
2021/04/13 02:20:44;;;;;;;3.03;2.50;;;;;;;0.04;78.93;102712.78;5069748;28;20338;-85
2021/04/13 02:23:12;;;;;;;4.00;2.60;;;;;;;0.02;78.40;102715.56;5068811;28;20115;-85
2021/04/13 02:28:18;;;;;;;4.90;2.92;;;;;;;-0.07;79.19;102713.69;5073281;28;20036;-86
2021/04/13 02:30:46;;;;;;;5.82;2.65;;;;;;;-0.04;79.07;102718.69;5070655;28;20032;-86
2021/04/13 02:33:28;;;;;;;4.70;3.00;;;;;;;-0.16;79.26;102719.75;5074621;28;20045;-87
2021/04/13 02:35:55;;;;;;;6.07;2.65;;;;;;;-0.18;79.15;102713.75;5073141;28;20038;-86
2021/04/13 02:38:30;;;;;;;3.83;2.83;;;;;;;-0.22;79.06;102720.25;5073384;28;20055;-85
2021/04/13 02:41:06;;;;;;;5.80;3.10;;;;;;;-0.31;79.61;102720.06;5072179;28;20037;-84
2021/04/13 02:43:44;;;;;;;4.68;2.75;;;;;;;-0.36;80.81;102724.91;5067220;28;20032;-86
2021/04/13 02:46:17;;;;;;;5.68;2.75;;;;;;;-0.33;80.22;102715.91;5073271;28;21431;-85
2021/04/13 02:48:50;;;;;;;4.30;2.88;;;;;;;-0.32;79.82;102728.94;5080478;28;20355;-85
2021/04/13 02:51:18;;;;;;;2.88;2.47;;;;;;;-0.32;79.73;102723.69;5060778;28;20118;-84
2021/04/13 02:53:55;;;;;;;5.38;2.67;;;;;;;-0.35;80.06;102716.03;5070969;28;20047;-86
2021/04/13 02:56:25;;;;;;;3.92;2.70;;;;;;;-0.36;79.79;102724.91;5073772;28;20087;-85
2021/04/13 02:59:12;;;;;;;4.57;2.80;;;;;;;-0.49;80.72;102726.88;5073011;28;20024;-85
2021/04/13 03:02:07;;;;;;;4.93;3.03;;;;;;;-0.49;79.91;102726.88;5067938;28;20036;-86
2021/04/13 03:04:43;;;;;;;8.15;3.30;;;;;;;-0.58;80.47;102732.88;5066439;28;20478;-85
2021/04/13 03:07:21;;;;;;;5.70;3.47;;;;;;;-0.55;79.10;102729.16;5069123;28;20052;-86
2021/04/13 03:09:50;;;;;;;4.63;3.10;;;;;;;-0.71;80.05;102734.88;5072348;28;20023;-86
2021/04/13 03:12:16;;;;;;;5.45;2.83;;;;;;;-0.68;79.40;102734.63;5073170;28;20020;-83
2021/04/13 03:14:52;;;;;;;4.15;3.00;;;;;;;-0.80;79.08;102725.09;5073688;28;20031;-87
2021/04/13 03:17:25;;;;;;;4.55;2.65;;;;;;;-0.81;79.16;102733.94;5074790;28;20027;-87
2021/04/13 03:19:58;;;;;;;6.10;2.90;;;;;;;-0.97;80.36;102732.56;5091318;28;20032;-87
2021/04/13 03:22:28;;;;;;;3.67;2.88;;;;;;;-0.96;80.62;102728.13;5077423;28;20032;-88
2021/04/13 03:24:56;;;;;;;4.47;2.88;;;;;;;-0.96;80.82;102734.22;5078262;28;20565;-88
2021/04/13 03:27:27;;;;;;;2.97;2.40;;;;;;;-1.00;80.15;102738.06;5090384;28;20460;-87
2021/04/13 03:30:28;;;;;;;4.65;2.92;;;;;;;-1.14;80.33;102740.13;5071732;28;21595;-87
2021/04/13 03:33:16;;;;;;;6.65;3.15;;;;;;;-1.26;81.23;102734.03;5071425;28;20024;-88
2021/04/13 03:35:42;;;;;;;4.75;2.97;;;;;;;-1.35;81.42;102737.41;5072197;28;20513;-87
2021/04/13 03:38:12;;;;;;;4.78;2.85;;;;;;;-1.37;81.87;102736.69;5071389;28;20032;-87
2021/04/13 03:40:44;;;;;;;5.38;2.95;;;;;;;-1.37;81.80;102736.69;5072596;28;20034;-88
2021/04/13 03:43:10;;;;;;;5.82;3.03;;;;;;;-1.37;81.04;102734.06;5076460;28;20102;-87
2021/04/13 03:45:44;;;;;;;5.68;3.15;;;;;;;-1.45;81.17;102739.09;5073453;28;20024;-86
2021/04/13 03:48:31;;;;;;;6.17;3.00;;;;;;;-1.58;81.07;102737.44;5090812;28;20584;-85
2021/04/13 03:51:02;;;;;;;6.57;3.20;;;;;;;-1.63;80.95;102736.94;5077708;28;20552;-88
2021/04/13 03:53:36;;;;;;;6.43;3.85;;;;;;;-1.79;83.27;102744.38;5076539;28;20514;-88
2021/04/13 03:56:25;;;;;;;;;;;;;;;;;;;;;
2021/04/13 03:58:55;;;;;;;4.57;2.80;;;;;;;-1.88;83.22;102739.81;5093126;28;20034;-88
2021/04/13 04:01:28;;;;;;;4.65;3.13;;;;;;;-1.79;83.44;102744.38;5073304;28;20024;-87
2021/04/13 04:04:00;;;;;;;5.75;3.25;;;;;;;-1.71;81.24;102735.88;5074557;28;20084;-88
2021/04/13 04:06:59;;;;;;;6.53;3.00;;;;;;;-1.57;80.62;102740.91;5081002;28;20024;-87
2021/04/13 04:09:27;;;;;;;6.90;3.72;;;;;;;-1.52;80.08;102742.19;5076961;28;20027;-89
2021/04/13 04:11:53;;;;;;;5.40;3.30;;;;;;;-1.53;79.52;102750.22;5072975;28;20393;-86
2021/04/13 04:14:43;;;;;;;6.05;3.03;;;;;;;-1.65;80.16;102752.00;5074085;28;20024;-88
2021/04/13 04:17:57;;;;;;;7.22;3.55;;;;;;;-1.70;80.28;102754.16;5059607;28;20041;-92
2021/04/13 04:57:38;;;;;;;5.07;3.03;;;;;;;-0.35;76.99;102784.50;5055573;28;20081;-88
2021/04/13 05:00:22;;;;;;;4.65;3.20;;;;;;;-0.19;76.88;102793.75;5069394;28;20107;-88
2021/04/13 05:02:48;;;;;;;10.63;2.87;;;;;;;0.03;76.41;102791.03;5071016;28;20959;-84
2021/04/13 05:05:14;;;;;;;3.85;2.58;;;;;;;0.36;75.60;102792.59;5070570;28;20035;-84
2021/04/13 05:07:40;;;;;;;5.32;2.25;;;;;;;0.60;74.13;102784.38;5066345;28;20035;-84
2021/04/13 05:10:06;;;;;;;6.32;3.00;;;;;;;0.83;73.96;102791.13;5063683;28;20030;-85
2021/04/13 05:12:31;;;;;;;5.72;2.63;;;;;;;0.98;74.60;102782.81;5063525;28;20390;-83
2021/04/13 05:14:57;;;;;;;5.65;3.20;;;;;;;1.09;74.47;102791.47;5065742;28;20031;-82
2021/04/13 05:17:22;;;;;;;7.25;3.00;;;;;;;1.30;73.78;102796.66;5068584;28;20035;-82
2021/04/13 05:19:48;;;;;;;5.32;2.90;;;;;;;1.44;72.78;102787.50;5067114;28;20397;-82
2021/04/13 05:22:14;;;;;;;6.10;2.28;;;;;;;1.33;73.70;102787.63;5067276;28;20040;-83
2021/04/13 05:24:39;;;;;;;3.53;2.78;;;;;;;1.38;74.02;102788.03;5064500;28;20062;-82
2021/04/13 05:27:18;;;;;;;4.85;2.72;;;;;;;1.46;73.68;102794.31;5083295;28;20405;-83
2021/04/13 05:29:43;;;;;;;5.47;2.72;;;;;;;1.54;74.01;102790.13;5064602;28;20032;-82
2021/04/13 05:32:09;;;;;;;4.50;3.05;;;;;;;1.66;73.65;102794.31;5063785;28;20024;-83
2021/04/13 05:34:35;;;;;;;6.38;2.53;;;;;;;1.71;73.25;102786.78;5068850;28;20028;-81
2021/04/13 05:37:00;;;;;;;6.22;2.63;;;;;;;1.70;73.50;102793.88;5067986;28;20047;-81
2021/04/13 05:39:27;;;;;;;6.47;2.15;;;;;;;1.85;73.03;102789.00;5068696;28;20628;-81
2021/04/13 05:41:55;;;;;;;6.80;2.72;;;;;;;1.97;72.73;102794.97;5067589;28;20406;-81
2021/04/13 05:44:21;;;;;;;4.88;2.45;;;;;;;2.04;72.76;102791.63;5069190;28;20027;-81
2021/04/13 05:46:48;;;;;;;3.65;2.45;;;;;;;2.16;72.23;102802.06;5070890;28;20028;-81
2021/04/13 05:49:14;;;;;;;6.57;2.85;;;;;;;2.31;71.25;102790.84;5083843;28;20016;-81
2021/04/13 05:51:39;;;;;;;6.65;2.47;;;;;;;2.31;72.44;102790.00;5071402;28;20375;-81
2021/04/13 05:54:05;;;;;;;5.40;2.53;;;;;;;2.53;71.39;102787.03;5068149;28;20027;-81
2021/04/13 05:56:36;;;;;;;4.00;2.47;;;;;;;2.45;71.25;102792.22;5075963;28;20027;-82
2021/04/13 05:59:05;;;;;;;5.50;2.60;;;;;;;2.62;70.60;102793.25;5070411;28;20549;-81
2021/04/13 06:01:32;;;;;;;6.53;2.75;;;;;;;2.69;71.12;102789.91;5066527;28;20091;-84
2021/04/13 06:03:58;;;;;;;4.80;2.83;;;;;;;2.81;70.72;102797.63;5073686;28;20024;-84
2021/04/13 06:06:24;;;;;;;4.78;2.28;;;;;;;2.79;70.92;102797.78;5091490;28;20038;-83
2021/04/13 06:08:49;;;;;;;5.75;3.10;;;;;;;3.12;69.74;102795.53;5073564;28;20032;-82
2021/04/13 06:11:25;;;;;;;3.65;3.08;;;;;;;3.20;69.12;102804.38;5074274;28;20031;-84
2021/04/13 06:13:55;;;;;;;7.97;2.72;;;;;;;3.33;68.68;102799.56;5071255;28;20043;-85
2021/04/13 06:16:22;;;;;;;6.72;2.72;;;;;;;3.39;69.13;102802.56;5069187;28;20040;-82
2021/04/13 06:18:49;;;;;;;3.65;2.85;;;;;;;3.59;68.07;102804.09;5072193;28;20024;-86
2021/04/13 06:21:15;;;;;;;6.80;3.60;;;;;;;3.42;69.29;102803.13;5072707;28;20028;-83
2021/04/13 06:23:43;;;;;;;4.25;3.00;;;;;;;3.62;68.81;102803.81;5070905;28;20573;-86
2021/04/13 06:26:11;;;;;;;4.03;2.88;;;;;;;3.41;68.00;102806.78;5066006;28;20039;-83
2021/04/13 06:28:36;;;;;;;4.82;2.47;;;;;;;3.71;68.51;102805.53;5073824;28;20021;-83
2021/04/13 06:31:02;;;;;;;3.75;2.67;;;;;;;3.77;67.54;102807.59;5073574;28;20709;-83
2021/04/13 06:33:28;;;;;;;4.43;2.75;;;;;;;4.06;67.16;102804.66;5090879;28;20032;-83
2021/04/13 06:36:02;;;;;;;5.95;2.70;;;;;;;3.75;67.62;102806.88;5079886;28;20032;-83
2021/04/13 06:38:29;;;;;;;4.70;2.97;;;;;;;4.01;67.31;102806.13;5079245;28;20478;-84
2021/04/13 06:41:17;;;;;;;3.80;2.70;;;;;;;4.22;66.59;102801.28;5078821;28;20028;-83
2021/04/13 06:44:09;;;;;;;3.63;2.40;;;;;;;4.18;66.70;102811.38;5075167;28;20054;-85
2021/04/13 06:46:50;;;;;;;5.97;2.72;;;;;;;4.10;66.65;102805.19;5070976;28;20034;-85
2021/04/13 06:49:30;;;;;;;5.45;3.17;;;;;;;4.20;66.25;102812.06;5068881;28;20020;-87
2021/04/13 06:52:34;;;;;;;5.20;2.85;;;;;;;4.00;67.27;102815.91;5073337;28;20027;-86
2021/04/13 06:55:11;;;;;;;5.10;2.78;;;;;;;4.33;66.82;102822.28;5065691;28;20504;-85
2021/04/13 06:57:52;;;;;;;6.55;2.90;;;;;;;4.39;66.33;102821.63;5072036;28;20031;-85
2021/04/13 07:00:51;;;;;;;6.75;3.17;;;;;;;4.65;66.18;102824.25;5069468;28;20020;-88
2021/04/13 07:03:26;;;;;;;6.68;3.33;;;;;;;4.35;66.92;102822.13;5071373;28;20036;-86
2021/04/13 07:05:59;;;;;;;6.43;3.42;;;;;;;3.96;67.52;102819.84;5073327;28;20071;-85
2021/04/13 07:08:46;;;;;;;7.80;2.78;;;;;;;3.94;67.54;102821.78;5073756;28;20020;-87
2021/04/13 07:11:26;;;;;;;6.03;2.85;;;;;;;4.03;68.08;102814.75;5091734;28;20032;-86
2021/04/13 07:14:03;;;;;;;6.22;2.75;;;;;;;4.36;67.65;102821.13;5072360;28;20032;-84
2021/04/13 07:16:43;;;;;;;5.60;2.97;;;;;;;4.62;66.93;102824.56;5095432;28;20023;-86
2021/04/13 07:19:50;;;;;;;5.38;3.28;;;;;;;4.94;65.33;102823.91;5082394;28;20079;-83
2021/04/13 07:22:31;;;;;;;6.60;2.90;;;;;;;5.02;65.15;102817.78;5066217;28;20044;-83
2021/04/13 07:25:13;;;;;;;7.18;3.05;;;;;;;4.73;65.99;102820.81;5080468;28;20024;-84
2021/04/13 07:27:47;;;;;;;5.15;2.75;;;;;;;4.79;64.92;102825.50;5069530;28;20109;-83
2021/04/13 07:30:33;;;;;;;10.40;2.67;;;;;;;4.95;64.85;102822.06;5098101;28;20085;-83
2021/04/13 07:33:00;;;;;;;4.65;2.55;;;;;;;4.83;64.98;102816.22;5088702;28;20027;-84
2021/04/13 07:35:33;;;;;;;4.95;2.85;;;;;;;4.86;64.98;102818.56;5080624;28;20039;-83
2021/04/13 07:38:01;;;;;;;5.03;2.28;;;;;;;4.82;64.65;102814.53;5078403;28;20417;-86
2021/04/13 07:40:29;;;;;;;6.00;2.25;;;;;;;4.95;64.18;102820.25;5091146;28;20097;-86
2021/04/13 07:43:03;;;;;;;6.55;2.60;;;;;;;4.87;64.33;102814.91;5076034;28;20028;-87
2021/04/13 07:45:50;;;;;;;6.05;2.17;;;;;;;4.92;63.65;102815.25;5075080;28;20178;-86
2021/04/13 07:48:26;;;;;;;7.93;2.50;;;;;;;4.87;63.97;102820.22;5072778;28;20066;-86
2021/04/13 07:50:59;;;;;;;3.78;1.95;;;;;;;4.61;63.97;102822.91;5075957;28;20667;-87
2021/04/13 07:53:43;;;;;;;6.43;2.47;;;;;;;4.71;64.70;102809.53;5095935;28;20077;-87
2021/04/13 07:56:18;;;;;;;8.57;2.40;;;;;;;5.05;63.80;102814.81;5079110;28;20023;-87
2021/04/13 07:59:04;;;;;;;6.22;2.28;;;;;;;5.20;62.77;102815.00;5071728;28;20036;-86
2021/04/13 08:01:30;;;;;;;4.65;2.58;;;;;;;5.64;61.60;102808.47;5092328;28;20489;-90
2021/04/13 08:03:55;;;;;;;6.13;2.78;;;;;;;5.71;60.37;102806.78;5074919;28;20118;-88
2021/04/13 08:06:27;;;;;;;6.82;2.15;;;;;;;5.64;60.58;102808.47;5067710;28;20482;-87
2021/04/13 08:09:23;;;;;;;4.38;2.00;;;;;;;5.46;60.36;102805.94;5080482;28;20031;-87
2021/04/13 08:12:15;;;;;;;7.70;2.45;;;;;;;5.57;60.36;102809.28;5060022;28;20528;-88
2021/04/13 08:14:45;;;;;;;7.63;2.22;;;;;;;5.96;59.26;102796.19;5012857;28;20048;-86
2021/04/13 08:17:13;;;;;;;5.65;2.40;;;;;;;6.00;58.94;102809.00;5066864;28;20055;-86
2021/04/13 08:19:41;;;;;;;4.35;2.55;;;;;;;6.12;58.68;102798.84;5073971;28;20028;-86
2021/04/13 08:22:16;;;;;;;3.47;1.95;;;;;;;6.34;58.42;102806.13;5056885;28;20501;-87
2021/04/13 08:24:59;;;;;;;6.78;2.40;;;;;;;6.74;56.94;102799.00;5053442;28;20047;-87
2021/04/13 08:27:49;;;;;;;6.45;2.40;;;;;;;6.18;55.68;102800.81;5072284;28;20032;-86
2021/04/13 08:30:33;;;;;;;7.85;2.15;;;;;;;6.85;55.79;102803.97;5049785;28;20031;-87
2021/04/13 08:33:20;;;;;;;5.90;2.22;;;;;;;6.98;55.55;102796.22;5051086;28;20028;-86
2021/04/13 08:36:00;;;;;;;5.00;1.75;;;;;;;6.61;55.70;102804.03;5051948;28;20033;-86
2021/04/13 08:39:01;;;;;;;3.75;1.70;;;;;;;7.26;54.63;102801.91;5070364;28;20423;-86
2021/04/13 08:41:40;;;;;;;2.35;1.65;;;;;;;7.20;53.41;102810.63;5042524;28;20111;-86
2021/04/13 08:44:37;;;;;;;4.82;1.80;;;;;;;6.86;54.25;102813.63;5053918;28;20464;-87
2021/04/13 08:47:19;;;;;;;6.47;2.03;;;;;;;6.92;54.82;102804.09;5053127;28;20020;-86
2021/04/13 08:49:51;;;;;;;3.33;2.00;;;;;;;6.59;54.19;102811.38;5060618;28;20032;-87
2021/04/13 08:52:29;;;;;;;5.43;2.10;;;;;;;6.88;54.46;102806.28;5068148;28;20031;-86
2021/04/13 08:55:16;;;;;;;2.35;1.70;;;;;;;6.86;54.59;102813.63;5059355;28;20040;-87
2021/04/13 08:58:04;;;;;;;6.00;2.00;;;;;;;6.83;53.40;102800.66;5047601;28;20552;-87
2021/04/13 09:00:30;;;;;;;2.45;1.80;;;;;;;6.48;54.81;102811.75;5043402;28;20111;-86
2021/04/13 09:02:58;;;;;;;4.40;2.10;;;;;;;6.55;54.83;102810.06;5053318;28;20119;-86
2021/04/13 09:05:26;;;;;;;5.05;1.92;;;;;;;6.86;54.74;102802.97;5050083;28;20487;-88
2021/04/13 09:08:11;;;;;;;4.72;1.85;;;;;;;6.91;53.28;102811.25;5053557;28;20063;-85
2021/04/13 09:10:42;;;;;;;3.90;1.77;;;;;;;6.95;53.08;102811.72;5096659;28;20466;-87
2021/04/13 09:13:22;;;;;;;2.47;1.75;;;;;;;6.86;53.26;102815.44;5073576;28;20035;-87
2021/04/13 09:15:48;;;;;;;4.55;2.10;;;;;;;6.90;54.00;102809.59;5067514;28;20126;-85
2021/04/13 09:18:18;;;;;;;3.45;1.83;;;;;;;6.62;53.24;102805.69;5075202;28;20107;-89
2021/04/13 09:20:50;;;;;;;4.35;1.80;;;;;;;6.69;53.74;102801.34;5073082;28;20024;-87
2021/04/13 09:23:32;;;;;;;3.63;1.40;;;;;;;6.48;52.55;102812.59;5069617;28;20032;-83
2021/04/13 09:26:21;;;;;;;3.05;1.27;;;;;;;6.73;52.29;102809.84;5084044;28;20080;-85
2021/04/13 09:28:47;;;;;;;4.18;2.00;;;;;;;6.75;52.57;102800.66;5066636;28;20378;-84
2021/04/13 09:31:16;;;;;;;3.78;2.63;;;;;;;6.91;52.69;102800.59;5091055;28;20030;-85
2021/04/13 09:33:43;;;;;;;5.00;2.17;;;;;;;7.01;52.18;102804.91;5074337;28;20493;-86
2021/04/13 09:36:20;;;;;;;3.55;1.58;;;;;;;7.37;50.55;102798.03;5070614;28;20429;-87
2021/04/13 09:39:17;;;;;;;5.63;1.40;;;;;;;7.01;50.02;102826.22;5075830;28;20043;-83
2021/04/13 09:42:01;;;;;;;4.30;1.30;;;;;;;7.00;49.09;102813.88;5092372;28;20474;-84
2021/04/13 09:44:47;;;;;;;7.55;2.13;;;;;;;6.66;50.23;102805.19;5092359;28;20043;-84
2021/04/13 09:47:50;;;;;;;3.25;2.65;;;;;;;6.68;52.05;102805.03;5076220;28;20115;-85
2021/04/13 09:50:54;;;;;;;3.85;2.10;;;;;;;6.44;52.74;102813.06;5092685;28;20051;-84
2021/04/13 09:53:42;;;;;;;4.03;2.00;;;;;;;7.09;48.73;102799.50;5089390;28;20032;-84
2021/04/13 09:56:45;;;;;;;3.60;1.60;;;;;;;7.30;47.89;102794.38;5068970;28;20020;-85
2021/04/13 09:59:32;;;;;;;11.43;1.85;;;;;;;7.86;47.97;102794.97;5091310;28;20024;-83
2021/04/13 10:02:17;;;;;;;1.73;1.50;;;;;;;8.11;47.30;102793.75;5065695;28;20031;-83
2021/04/13 10:04:53;;;;;;;4.22;2.58;;;;;;;8.04;47.78;102800.81;5070657;28;20028;-82
2021/04/13 10:07:25;;;;;;;9.13;3.25;;;;;;;7.54;48.41;102788.91;5079599;28;20892;-81
2021/04/13 10:09:51;;;;;;;6.30;2.35;;;;;;;7.93;48.16;102790.59;5082408;28;20031;-80
2021/04/13 10:12:42;;;;;;;4.53;2.47;;;;;;;7.76;48.66;102791.72;5066910;28;20020;-82
2021/04/13 10:15:15;;;;;;;5.90;1.25;;;;;;;7.24;46.80;102800.44;5087576;28;20123;-83
2021/04/13 10:18:13;;;;;;;3.55;1.70;;;;;;;7.98;46.75;102796.19;5065716;28;20055;-83
2021/04/13 10:20:58;;;;;;;2.00;1.40;;;;;;;8.00;47.44;102799.50;5065231;28;20878;-81
2021/04/13 10:23:49;;;;;;;3.60;1.40;;;;;;;8.33;45.49;102799.19;5067397;28;20020;-83
2021/04/13 10:26:46;;;;;;;4.85;1.33;;;;;;;9.08;43.66;102797.13;5070925;28;20509;-84
2021/04/13 10:29:55;;;;;;;3.47;1.33;;;;;;;8.57;45.09;102790.09;5051551;28;20040;-84
2021/04/13 10:32:29;;;;;;;3.70;1.55;;;;;;;7.73;46.87;102795.59;5069585;28;20028;-84
2021/04/13 10:35:25;;;;;;;4.00;1.47;;;;;;;8.31;45.64;102790.53;5074081;28;20097;-83
2021/04/13 10:38:06;;;;;;;4.35;1.90;;;;;;;8.98;43.80;102790.44;5083747;28;20102;-83
2021/04/13 10:41:18;;;;;;;4.03;1.40;;;;;;;8.61;45.13;102791.38;5088372;28;20035;-83
2021/04/13 10:44:07;;;;;;;4.00;1.55;;;;;;;8.15;45.40;102795.03;5040801;28;20086;-83
2021/04/13 10:46:56;;;;;;;8.55;1.45;;;;;;;8.19;45.61;102790.16;5074280;28;20736;-83
2021/04/13 10:49:59;;;;;;;2.97;1.77;;;;;;;7.91;45.88;102784.59;5078188;28;20027;-83
2021/04/13 10:52:45;;;;;;;3.85;1.58;;;;;;;8.45;45.92;102771.06;5070840;28;20027;-83
2021/04/13 10:55:32;;;;;;;3.38;1.77;;;;;;;8.18;46.51;102770.63;5062530;28;20023;-82
2021/04/13 10:58:26;;;;;;;5.93;1.90;;;;;;;8.63;45.96;102771.50;5063877;28;20042;-81
2021/04/13 11:01:19;;;;;;;3.95;1.85;;;;;;;8.42;45.90;102768.72;5069331;28;20056;-82
2021/04/13 11:04:09;;;;;;;2.47;1.35;;;;;;;8.37;46.40;102771.13;5065762;28;20123;-83
2021/04/13 11:07:02;;;;;;;3.67;1.60;;;;;;;8.37;46.80;102768.47;5067501;28;20027;-84
2021/04/13 11:09:48;;;;;;;5.47;1.88;;;;;;;8.30;46.45;102765.69;5057836;28;20028;-84
2021/04/13 11:13:08;;;;;;;5.93;1.40;;;;;;;8.84;44.71;102756.56;5067154;28;20119;-84
2021/04/13 11:16:14;;;;;;;6.05;1.88;;;;;;;9.79;42.44;102753.59;5030734;28;20691;-84
2021/04/13 11:18:58;;;;;;;3.53;1.35;;;;;;;10.02;41.20;102753.34;5069817;28;20035;-84
2021/04/13 11:21:45;;;;;;;4.03;1.73;;;;;;;10.04;40.13;102764.69;5066623;28;20394;-85
2021/04/13 11:24:37;;;;;;;2.78;1.48;;;;;;;9.14;42.61;102744.72;5069335;28;20614;-88
2021/04/13 11:27:41;;;;;;;3.33;0.98;;;;;;;8.84;44.21;102756.56;5062914;28;20189;-87
2021/04/13 11:30:31;;;;;;;5.15;1.60;;;;;;;9.01;44.03;102750.78;5060080;28;20482;-87
2021/04/13 11:33:09;;;;;;;3.28;1.30;;;;;;;8.85;43.93;102779.59;5062034;28;20036;-85
2021/04/13 11:35:34;;;;;;;8.68;1.65;;;;;;;8.32;45.50;102769.00;5066074;28;20016;-85
2021/04/13 11:38:01;;;;;;;3.15;1.58;;;;;;;8.20;45.04;102765.09;5059783;28;20455;-86
2021/04/13 11:40:43;;;;;;;3.60;1.30;;;;;;;7.92;46.07;102764.91;5062514;28;20158;-86
2021/04/13 11:43:17;;;;;;;3.80;1.20;;;;;;;7.96;46.62;102766.19;5067006;28;20024;-84
2021/04/13 11:49:44;;;;;;;3.45;1.20;;;;;;;9.01;46.08;102749.97;5069340;28;21919;-87
2021/04/13 11:52:44;;;;;;;4.45;1.42;;;;;;;9.33;43.70;102749.47;5058508;28;20410;-87
2021/04/13 11:55:28;;;;;;;3.83;1.63;;;;;;;9.56;41.92;102762.66;5063162;28;20025;-86
2021/04/13 11:58:06;;;;;;;4.88;1.00;;;;;;;9.78;41.71;102760.78;5060805;28;20040;-85
2021/04/13 12:00:32;;;;;;;5.88;1.30;;;;;;;9.71;42.27;102757.25;5062661;28;20049;-87
2021/04/13 12:03:04;;;;;;;5.13;1.00;;;;;;;8.99;42.65;102760.03;5070210;28;20032;-89
2021/04/13 12:05:32;;;;;;;3.40;0.88;;;;;;;8.75;42.38;102753.13;5069910;28;20032;-88
2021/04/13 12:08:02;;;;;;;3.30;1.00;;;;;;;9.68;41.72;102755.75;5072835;28;20028;-89
2021/04/13 12:10:31;;;;;;;4.10;0.95;;;;;;;9.20;40.40;102762.72;5055962;28;20036;-89
2021/04/13 12:13:07;;;;;;;3.20;1.20;;;;;;;9.23;40.90;102750.81;5060319;28;20840;-89
2021/04/13 12:15:38;;;;;;;3.83;1.20;;;;;;;11.18;38.15;102752.47;5052852;28;20096;-87
2021/04/13 12:18:35;;;;;;;7.13;1.10;;;;;;;11.94;35.91;102746.75;5054648;28;20727;-89
2021/04/13 12:21:23;;;;;;;3.92;1.42;;;;;;;12.41;35.62;102761.78;5074596;28;20043;-90
2021/04/13 12:23:52;;;;;;;2.80;1.00;;;;;;;10.95;36.75;102765.38;5054259;28;20036;-89
2021/04/13 12:26:43;;;;;;;5.00;1.63;;;;;;;10.52;38.58;102762.94;5058830;28;20119;-90
2021/04/13 12:29:41;;;;;;;2.75;0.95;;;;;;;10.54;39.79;102772.44;5058964;28;20401;-88
2021/04/13 12:32:12;;;;;;;4.50;1.20;;;;;;;9.69;41.50;102786.88;5041395;28;20407;-89
2021/04/13 12:34:59;;;;;;;2.50;1.38;;;;;;;8.66;43.70;102772.97;5067853;28;20032;-89
2021/04/13 12:37:36;;;;;;;4.55;1.20;;;;;;;9.62;42.80;102763.72;5052465;28;20024;-89
2021/04/13 12:40:20;;;;;;;4.85;1.42;;;;;;;10.54;38.56;102759.03;5043886;28;20132;-89
2021/04/13 12:42:54;;;;;;;4.53;1.27;;;;;;;10.99;39.67;102762.13;5068194;28;20021;-89
2021/04/13 12:45:20;;;;;;;2.78;1.05;;;;;;;10.02;40.43;102754.16;5055389;28;20100;-89
2021/04/13 12:47:55;;;;;;;5.55;1.33;;;;;;;10.04;40.81;102764.69;5055251;28;20086;-89
2021/04/13 12:50:30;;;;;;;3.50;1.30;;;;;;;10.03;41.22;102765.69;5050272;28;20074;-89
2021/04/13 12:53:00;;;;;;;4.13;1.08;;;;;;;10.31;40.60;102761.19;5044428;28;21218;-89
2021/04/13 12:55:27;;;;;;;3.03;1.10;;;;;;;10.64;40.61;102760.53;5057420;28;20047;-89
2021/04/13 12:58:01;;;;;;;6.00;1.67;;;;;;;10.66;40.55;102758.50;5054008;28;20016;-90
2021/04/13 13:00:38;;;;;;;5.03;1.37;;;;;;;11.26;39.42;102752.28;5057489;28;20028;-88
2021/04/13 13:03:20;;;;;;;3.78;1.35;;;;;;;14.46;32.78;102746.88;5067304;28;20520;-87
2021/04/13 13:05:47;;;;;;;4.25;1.30;;;;;;;17.25;28.93;102741.88;5070121;28;20543;-84
2021/04/13 13:08:20;;;;;;;5.18;1.33;;;;;;;17.98;26.05;102740.06;5048598;28;20398;-86
2021/04/13 13:10:51;;;;;;;3.25;1.20;;;;;;;17.22;26.26;102742.34;5046575;28;20025;-87
2021/04/13 13:13:37;;;;;;;4.25;1.10;;;;;;;19.94;23.13;102729.94;5050927;28;20115;-88
2021/04/13 13:16:18;;;;;;;3.63;1.30;;;;;;;23.25;22.01;102716.88;5051260;28;20699;-87